AirNav   TITAN Aviation Fuels
 
 978 users online  

KCCB Cable Airport
Upland, California, USA

GOING TO UPLAND?


FAA INFORMATION EFFECTIVE 03 NOVEMBER 2022

Location

FAA Identifier: CCB
Lat/Long: 34-06-41.8000N 117-41-14.6000W
34-06.696667N 117-41.243333W
34.1116111,-117.6873889
(estimated)
Elevation: 1443.5 ft. / 440.0 m (surveyed)
Variation: 14E (2000)
From city: 2 miles NW of UPLAND, CA
Time zone: UTC -8 (UTC -7 during Daylight Saving Time)
Zip code: 91786

Airport Operations

Airport use: Open to the public
Activation date: 09/1945
Control tower: no
ARTCC: LOS ANGELES CENTER
FSS: RIVERSIDE FLIGHT SERVICE STATION
NOTAMs facility: RAL (NOTAM-D service available)
Attendance: DAYLIGHT HOURS
Pattern altitude: 2243.5 ft. MSL
Wind indicator: lighted
Segmented circle: no
Lights: ACTVT HELIPAD H1 PERIMETER LGTS - CTAF. MIRL RWY 06/24 PRESET ON LOW INTST SS-SR ACTVT HIGH INTST - CTAF.
Beacon: white-green (lighted land airport)
Operates sunset to sunrise.

Airport Communications

CTAF/UNICOM: 123.0
WX AWOS-3P: 119.525 (909-985-4731)
SOCAL APPROACH: 125.5 ;SW-NORTH
SOCAL DEPARTURE: 125.5 ;SW-NORTH
WX AWOS-3PT at POC (5 nm W): 124.4 (909-596-1523)
WX ASOS at ONT (5 nm SE): PHONE 909-937-2186
WX ASOS at CNO (9 nm S): PHONE 909-393-5823
WX AWOS-3PT at AJO (14 nm S): 132.175 (951-340-4764)
WX ASOS at RAL (15 nm SE): 128.8 (951-352-4392)
WX AWOS-3PT at EMT (17 nm W): 118.75 ((626) 444-1107)

Nearby radio navigation aids

VOR radial/distance  VOR name  Freq  Var
POMr053/5.3POMONA VORTAC110.4015E
PDZr311/14.0PARADISE VORTAC112.2015E
RALr294/(15.1)RIVERSIDE VOR108.6014E
ELBr351/26.2EL TORO VOR/DME117.2014E
SLIr028/26.9SEAL BEACH VORTAC115.7015E
HDFr295/(32.1)HOMELAND VOR112.0514E
VCVr193/32.5VICTORVILLE VOR/DME109.0514E
PMDr134/36.3PALMDALE VORTAC114.5015E
LAXr059/38.5LOS ANGELES VORTAC113.6015E
SMOr066/38.7SANTA MONICA VOR/DME110.8015E

Airport Services

Fuel available: 100LL JET-A
100LL:SELF SERVICE 24 HOUR
Parking: tiedowns
Airframe service: MAJOR
Powerplant service: MAJOR
Bottled oxygen: HIGH/LOW
Bulk oxygen: HIGH/LOW

Runway Information

Runway 6/24

Dimensions: 3863 x 75 ft. / 1177 x 23 m
Surface: asphalt, in good condition
Weight bearing capacity: 
Single wheel: 20.0, GROSS PAVEMENT STRENGTH PRVDD BY ARPT OPERATOR 12500 LBS.
Runway edge lights: medium intensity
RUNWAY 6  RUNWAY 24
Latitude: 34-06.583090N34-06.809947N
Longitude: 117-41.600965W117-40.885618W
Elevation: 1393.0 ft.1443.5 ft.
Traffic pattern: leftleft
Runway heading: 055 magnetic, 069 true235 magnetic, 249 true
Displaced threshold: 106 ft.157 ft.
Markings: nonprecision, in good conditionbasic, in good condition
Visual slope indicator: 2-box VASI on left (4.00 degrees glide path)2-box VASI on right (4.00 degrees glide path)
RWY 24 VASI UNUSBL BYD 5 DEG R AND 9 DEG L OF CNTRLN.
Runway end identifier lights: nono
Touchdown point: yes, no lightsyes, no lights
Obstructions: none9 ft. road, 200 ft. from runway
+6 FT FENCE WITH RED LGTS 50 FT FROM THLD.

Helipad H1

Dimensions: 65 x 65 ft. / 20 x 20 m
Surface: asphalt, in good condition
Runway edge lights: PERI
Traffic pattern: leftleft

Helipad H2

Dimensions: 65 x 65 ft. / 20 x 20 m
Surface: asphalt/concrete, in good condition
Traffic pattern: leftleft

Airport Ownership and Management from official FAA records

Ownership: Privately-owned
Owner: CABLE LAND CO - A PARTNERSHIP
1749 WEST 13TH STREET
UPLAND, CA 91786-2199
Phone 909-982-6021
Manager: STEPHEN DUNN
1749 WEST 13TH STREET
UPLAND, CA 91786-2199
Phone (951) 315-9224

Airport Operational Statistics

Aircraft based on the field: 168
Single engine airplanes: 157
Multi engine airplanes: 5
Helicopters: 2
Gliders airplanes: 4
    
Aircraft operations: avg 252/day *
80% local general aviation
20% transient general aviation
* for 12-month period ending 30 September 2019

Additional Remarks

FOR CD CTC SOCAL APCH AT 800-448-3724.

Instrument Procedures

NOTE: All procedures below are presented as PDF files. If you need a reader for these files, you should download the free Adobe Reader.

NOT FOR NAVIGATION. Please procure official charts for flight.
FAA instrument procedures published for use from 03 November 2022 at 0901Z to 01 December 2022 at 0900Z.

 
IAPs - Instrument Approach Procedures
RNAV (GPS) RWY 06   download (303KB)
VOR-A   download (297KB)
NOTE: Special Take-Off Minimums/Departure Procedures apply   download (211KB)

Other nearby airports with instrument procedures:

KPOC - Brackett Field Airport (5 nm W)
KONT - Ontario International Airport (5 nm SE)
KCNO - Chino Airport (9 nm S)
KAJO - Corona Municipal Airport (14 nm S)
KRAL - Riverside Municipal Airport (15 nm SE)
KRIR - Flabob Airport (16 nm SE)
KEMT - San Gabriel Valley Airport (17 nm W)
 
Loc | Ops | Rwys | IFR | FBO | Links
Com | Nav | Svcs | Stats | Notes

Luxivair - San Bernardino International Airport
 
Area around KCCB (Cable Airport)
 
Road maps at: MapQuest Bing Google
 
Aerial photo
WARNING: Photo may not be current or correct
Aerial photo of KCCB (Cable Airport)
Photo courtesy of focalflight.com
Photo taken 05-Jun-2017
looking north.

Do you have a better or more recent aerial photo of Cable Airport that you would like to share? If so, please send us your photo.

 
Sectional chart

 
Airport diagram
CAUTION: Diagram may not be current
Diagram of KCCB (Cable Airport)
 
Airport distance calculator
Flying to Cable Airport? Find the distance to fly.

From to KCCB

Sunrise and sunset
Times for 30-Nov-2022
 Local
(UTC-8)
 Zulu
(UTC)
Morning civil twilight06:1114:11
Sunrise06:3814:38
Sunset16:4000:40
Evening civil twilight17:0801:08

Current date and time
Zulu (UTC)  01-Dec-2022 00:12:46
Local (UTC-8)  30-Nov-2022 16:12:46
 
METAR
KCCB  119.525 909-985-4731
302355Z AUTO 24010KT 10SM CLR 14/07 A2995 RMK AO2
KPOC 
4nm W 
302247Z 18006KT 10SM CLR A2996
KONT 
6nm SE 
302353Z 24008KT 10SM FEW035 FEW070 15/08 A2995 RMK AO2 SLP139 T01500083 10167 20117 56007
KCNO 
8nm SE 
302353Z 22009KT 10SM CLR 16/08 A2996 RMK AO2 SLP143 T01560078 10183 20128 55007
KAJO 
14nm S 
302356Z AUTO 26007KT 10SM CLR 15/08 A2996 RMK AO2 SLP141 6//// T01500083 10172 20128
KRAL 
15nm SE 
302353Z 28007KT 10SM CLR 16/07 A2994 RMK AO2 SLP131 T01560072 10172 20111 56008
KEMT 
17nm W 
302345Z 20009KT 10SM SCT045 15/08 A2996
TAF
KONT 
6nm SE 
301722Z 3018/0124 VRB04KT P6SM BKN017 FM301900 25007KT P6SM SCT020 FM302300 25009KT P6SM BKN035 FM010600 VRB04KT P6SM BKN030 FM012000 25007KT P6SM BKN040
NOTAMs
Click for the latest NOTAMs
NOTAMs are issued by the DoD/FAA and will open in a separate window not controlled by AirNav.

 

 
 

FBO, Fuel Providers, and Aircraft Ground Support

  
 Business Name 
 
 Contact 
 
 Services / Description 
 
Fuel Prices
 
Comments
  
Cable Airport 909-982-6021
[web site]
[email]
Aviation fuel
More info and photos of Cable Airport
 
Courtesy car  
 
Phillips 66
100LL Jet A
FS $6.46 --- 
SS $5.96 $5.14 
GUARANTEED
 
   1 read write
FS=Full service
SS=Self service
Update Fuel Prices
 

Where to Eat: Catering, Restaurants, Food shops

  
 Business Name 
 
 Contact 
 
 Services / Description 
 
Distance
 
Comments
  
Maniac Mike's Cafe 909-982-9886
no information available

If you are affiliated with Maniac Mike's Cafe and would like to show here your services, contact info, web link, logo, and more, click here
on airport  
   write
 

Would you like to see your business listed on this page?

 If your business provides an interesting product or service to pilots, flight crews, aircraft, or users of the Cable Airport, you should consider listing it here.  To start the listing process, click on the button below
 
Add a business
 

Other Pages about Cable Airport

www.cableairport.com
philtilden.com/...
 
Update a link
 
Copyright © AirNav, LLC. All rights reserved. Privacy Policy  Contact